createdAt,value
2022-08-25T00:00:51.529Z,21.97
2022-08-25T00:01:51.513Z,22.06
2022-08-25T00:02:55.299Z,21.99
2022-08-25T00:03:51.492Z,21.96
2022-08-25T00:04:53.699Z,21.94
2022-08-25T00:05:51.525Z,21.92
2022-08-25T00:06:51.456Z,21.91
2022-08-25T00:07:51.447Z,21.91
2022-08-25T00:08:51.433Z,21.89
2022-08-25T00:09:51.434Z,21.99
2022-08-25T00:11:03.123Z,21.89
2022-08-25T00:11:51.402Z,21.85
2022-08-25T00:12:51.389Z,21.83
2022-08-25T00:13:51.394Z,21.83
2022-08-25T00:14:51.365Z,21.88
2022-08-25T00:15:51.391Z,21.80
2022-08-25T00:16:51.358Z,21.84
2022-08-25T00:17:51.333Z,21.85
2022-08-25T00:18:51.320Z,21.85
2022-08-25T00:19:51.319Z,21.81
2022-08-25T00:20:51.298Z,21.83
2022-08-25T00:21:51.289Z,21.74
2022-08-25T00:22:51.299Z,21.81
2022-08-25T00:23:51.269Z,21.80
2022-08-25T00:24:51.253Z,21.70
2022-08-25T00:25:51.246Z,21.74
2022-08-25T00:26:51.232Z,21.74
2022-08-25T00:27:51.221Z,21.75
2022-08-25T00:28:51.233Z,21.75
2022-08-25T00:29:51.200Z,21.77
2022-08-25T00:30:51.223Z,21.75
2022-08-25T00:31:51.176Z,21.77
2022-08-25T00:32:55.268Z,21.70
2022-08-25T00:33:51.153Z,21.75
2022-08-25T00:34:51.143Z,21.66
2022-08-25T00:35:51.132Z,21.75
2022-08-25T00:36:51.133Z,21.77
2022-08-25T00:37:51.107Z,21.70
2022-08-25T00:38:51.094Z,21.74
2022-08-25T00:39:51.198Z,21.65
2022-08-25T00:40:51.073Z,21.69
2022-08-25T00:41:51.063Z,21.66
2022-08-25T00:42:51.058Z,21.63
2022-08-25T00:43:51.038Z,21.59
2022-08-25T00:44:51.033Z,21.65
2022-08-25T00:45:51.038Z,21.69
2022-08-25T00:46:51.011Z,21.65
2022-08-25T00:47:52.522Z,21.65
2022-08-25T00:48:50.980Z,21.69
2022-08-25T00:49:50.970Z,21.53
2022-08-25T00:50:50.958Z,21.56
2022-08-25T00:51:50.949Z,21.50
2022-08-25T00:52:50.936Z,21.54
2022-08-25T00:53:50.924Z,21.48
2022-08-25T00:54:50.940Z,21.53
2022-08-25T00:55:50.914Z,21.53
2022-08-25T00:56:50.889Z,21.51
2022-08-25T00:57:50.877Z,21.59
2022-08-25T00:58:50.865Z,21.54
2022-08-25T00:59:50.858Z,21.50
2022-08-25T01:00:50.845Z,21.48
2022-08-25T01:01:50.928Z,21.47
2022-08-25T01:02:50.902Z,21.50
2022-08-25T01:03:50.842Z,21.51
2022-08-25T01:04:50.815Z,21.45
2022-08-25T01:05:50.790Z,21.40
2022-08-25T01:06:50.776Z,21.41
2022-08-25T01:07:50.763Z,21.38
2022-08-25T01:08:50.751Z,21.38
2022-08-25T01:09:50.743Z,21.44
2022-08-25T01:10:50.728Z,21.37
2022-08-25T01:11:50.717Z,21.30
2022-08-25T01:12:50.720Z,21.28
2022-08-25T01:13:50.692Z,21.28
2022-08-25T01:14:50.701Z,21.30
2022-08-25T01:15:50.728Z,21.23
2022-08-25T01:16:51.159Z,21.29
2022-08-25T01:17:50.647Z,21.29
2022-08-25T01:18:50.638Z,21.28
2022-08-25T01:19:50.624Z,21.26
2022-08-25T01:20:50.622Z,21.19
2022-08-25T01:21:50.602Z,21.20
2022-08-25T01:22:55.084Z,21.19
2022-08-25T01:23:50.577Z,21.19
2022-08-25T01:24:50.563Z,21.10
2022-08-25T01:25:50.557Z,21.14
2022-08-25T01:26:50.544Z,21.10
2022-08-25T01:27:50.538Z,21.10
2022-08-25T01:28:50.518Z,21.00
2022-08-25T01:29:50.539Z,21.03
2022-08-25T01:30:50.578Z,21.03
2022-08-25T01:31:50.486Z,21.05
2022-08-25T01:32:50.491Z,20.98
2022-08-25T01:33:50.463Z,21.01
2022-08-25T01:34:51.985Z,20.96
2022-08-25T01:35:50.452Z,20.86
2022-08-25T01:36:50.427Z,20.88
2022-08-25T01:37:50.429Z,20.92
2022-08-25T01:38:50.405Z,20.85
2022-08-25T01:39:50.480Z,20.86
2022-08-25T01:40:50.392Z,20.83
2022-08-25T01:41:51.349Z,20.82
2022-08-25T01:42:50.357Z,20.78
2022-08-25T01:43:50.346Z,20.77
2022-08-25T01:44:50.344Z,20.77
2022-08-25T01:45:50.376Z,20.70
2022-08-25T01:46:50.309Z,20.78
2022-08-25T01:47:50.300Z,20.74
2022-08-25T01:48:50.295Z,20.75
2022-08-25T01:49:50.273Z,20.74
2022-08-25T01:50:50.279Z,20.71
2022-08-25T01:51:50.263Z,20.66
2022-08-25T01:52:50.257Z,20.67
2022-08-25T01:53:50.240Z,20.56
2022-08-25T01:54:50.225Z,20.66
2022-08-25T01:55:50.206Z,20.71
2022-08-25T01:56:50.211Z,20.60
2022-08-25T01:57:50.180Z,20.66
2022-08-25T01:58:50.166Z,20.66
2022-08-25T01:59:50.178Z,20.64
2022-08-25T02:00:50.144Z,20.55
2022-08-25T02:01:50.210Z,20.44
2022-08-25T02:02:52.336Z,20.44
2022-08-25T02:03:50.110Z,20.50
2022-08-25T02:04:50.690Z,20.39
2022-08-25T02:05:50.105Z,20.40
2022-08-25T02:06:50.072Z,20.32
2022-08-25T02:07:50.061Z,20.32
2022-08-25T02:08:50.048Z,20.32
2022-08-25T02:09:50.036Z,20.15
2022-08-25T02:10:50.043Z,20.11
2022-08-25T02:11:50.016Z,20.07
2022-08-25T02:12:50.001Z,20.03
2022-08-25T02:13:50.009Z,20.04
2022-08-25T02:14:50.016Z,19.97
2022-08-25T02:15:49.974Z,19.93
2022-08-25T02:16:50.009Z,19.85
2022-08-25T02:17:49.942Z,19.89
2022-08-25T02:18:49.939Z,19.81
2022-08-25T02:19:49.918Z,19.82
2022-08-25T02:20:49.911Z,19.71
2022-08-25T02:21:49.894Z,19.67
2022-08-25T02:22:56.634Z,19.66
2022-08-25T02:23:49.870Z,19.56
2022-08-25T02:24:49.877Z,19.49
2022-08-25T02:25:49.847Z,19.57
2022-08-25T02:26:49.852Z,19.41
2022-08-25T02:27:49.823Z,19.42
2022-08-25T02:28:49.818Z,19.41
2022-08-25T02:29:49.798Z,19.24
2022-08-25T02:30:49.825Z,19.23
2022-08-25T02:31:49.787Z,19.15
2022-08-25T02:32:49.776Z,19.11
2022-08-25T02:33:49.751Z,19.08
2022-08-25T02:34:49.740Z,19.01
2022-08-25T02:35:49.745Z,18.97
2022-08-25T02:36:49.713Z,18.91
2022-08-25T02:37:49.739Z,18.86
2022-08-25T02:38:49.695Z,18.83
2022-08-25T02:39:49.714Z,18.76
2022-08-25T02:40:49.695Z,18.74
2022-08-25T02:41:49.651Z,18.78
2022-08-25T02:42:49.652Z,18.73
2022-08-25T02:43:49.627Z,18.71
2022-08-25T02:44:49.615Z,18.58
2022-08-25T02:45:49.631Z,18.61
2022-08-25T02:46:49.591Z,18.60
2022-08-25T02:47:49.580Z,18.51
2022-08-25T02:48:49.590Z,18.55
2022-08-25T02:49:49.553Z,18.43
2022-08-25T02:50:49.545Z,18.49
2022-08-25T02:51:49.530Z,18.41
2022-08-25T02:52:49.515Z,18.36
2022-08-25T02:53:49.504Z,18.27
2022-08-25T02:54:49.518Z,18.27
2022-08-25T02:55:49.480Z,18.26
2022-08-25T02:56:49.465Z,18.19
2022-08-25T02:57:49.462Z,18.19
2022-08-25T02:58:49.463Z,18.09
2022-08-25T02:59:49.430Z,18.09
2022-08-25T03:00:49.448Z,17.97
2022-08-25T03:01:49.421Z,18.06
2022-08-25T03:02:49.393Z,17.90
2022-08-25T03:03:49.442Z,17.88
2022-08-25T03:04:49.439Z,17.88
2022-08-25T03:05:49.350Z,17.86
2022-08-25T03:06:49.340Z,17.79
2022-08-25T03:07:49.327Z,17.86
2022-08-25T03:08:49.314Z,17.80
2022-08-25T03:09:49.300Z,17.80
2022-08-25T03:10:49.289Z,17.78
2022-08-25T03:11:49.284Z,17.78
2022-08-25T03:12:49.264Z,17.76
2022-08-25T03:13:49.259Z,17.63
2022-08-25T03:14:49.240Z,17.63
2022-08-25T03:15:49.300Z,17.60
2022-08-25T03:16:49.272Z,17.59
2022-08-25T03:17:49.202Z,17.53
2022-08-25T03:18:49.187Z,17.54
2022-08-25T03:19:49.175Z,17.46
2022-08-25T03:20:49.162Z,17.44
2022-08-25T03:21:49.147Z,17.39
2022-08-25T03:22:49.137Z,17.42
2022-08-25T03:23:49.125Z,17.38
2022-08-25T03:24:49.112Z,17.35
2022-08-25T03:25:49.109Z,17.27
2022-08-25T03:26:49.084Z,17.32
2022-08-25T03:27:49.075Z,17.24
2022-08-25T03:28:49.063Z,17.22
2022-08-25T03:29:49.046Z,17.22
2022-08-25T03:30:49.033Z,17.17
2022-08-25T03:31:49.105Z,17.16
2022-08-25T03:32:49.016Z,17.17
2022-08-25T03:33:48.995Z,17.10
2022-08-25T03:34:48.983Z,17.09
2022-08-25T03:35:48.969Z,17.10
2022-08-25T03:36:48.956Z,17.07
2022-08-25T03:37:48.942Z,17.04
2022-08-25T03:38:48.930Z,17.04
2022-08-25T03:39:48.957Z,17.12
2022-08-25T03:40:48.901Z,17.01
2022-08-25T03:41:48.889Z,17.01
2022-08-25T03:42:48.877Z,16.99
2022-08-25T03:43:48.956Z,16.91
2022-08-25T03:44:48.850Z,16.97
2022-08-25T03:45:48.888Z,16.89
2022-08-25T03:46:48.823Z,16.84
2022-08-25T03:47:48.814Z,16.89
2022-08-25T03:48:48.796Z,16.82
2022-08-25T03:49:49.132Z,16.89
2022-08-25T03:50:51.593Z,16.80
2022-08-25T03:51:48.758Z,16.64
2022-08-25T03:52:48.745Z,16.79
2022-08-25T03:53:48.730Z,16.77
2022-08-25T03:54:48.720Z,16.72
2022-08-25T03:55:48.704Z,16.66
2022-08-25T03:56:48.692Z,16.64
2022-08-25T03:57:48.675Z,16.69
2022-08-25T03:58:48.670Z,16.62
2022-08-25T03:59:48.651Z,16.64
2022-08-25T04:00:48.694Z,16.55
2022-08-25T04:01:54.014Z,16.58
2022-08-25T04:02:48.692Z,16.62
2022-08-25T04:03:48.597Z,16.54
2022-08-25T04:04:48.587Z,16.59
2022-08-25T04:05:48.575Z,16.51
2022-08-25T04:06:48.560Z,16.49
2022-08-25T04:07:48.545Z,16.50
2022-08-25T04:08:48.536Z,16.41
2022-08-25T04:09:48.522Z,16.50
2022-08-25T04:10:48.508Z,16.41
2022-08-25T04:11:51.930Z,16.26
2022-08-25T04:12:48.481Z,16.34
2022-08-25T04:13:48.469Z,16.36
2022-08-25T04:14:48.453Z,16.39
2022-08-25T04:15:48.438Z,16.31
2022-08-25T04:16:48.583Z,16.28
2022-08-25T04:17:48.411Z,16.22
2022-08-25T04:18:48.399Z,16.18
2022-08-25T04:19:48.385Z,16.21
2022-08-25T04:20:48.370Z,16.21
2022-08-25T04:21:48.356Z,16.17
2022-08-25T04:22:48.343Z,16.21
2022-08-25T04:23:48.332Z,16.16
2022-08-25T04:24:48.317Z,16.12
2022-08-25T04:25:48.307Z,16.02
2022-08-25T04:26:48.290Z,16.03
2022-08-25T04:27:48.281Z,16.00
2022-08-25T04:28:48.264Z,15.99
2022-08-25T04:29:48.248Z,16.05
2022-08-25T04:30:51.871Z,15.98
2022-08-25T04:31:48.831Z,15.99
2022-08-25T04:32:48.209Z,15.98
2022-08-25T04:33:48.201Z,15.99
2022-08-25T04:34:48.182Z,15.92
2022-08-25T04:35:48.169Z,15.92
2022-08-25T04:36:51.186Z,15.87
2022-08-25T04:37:48.141Z,15.83
2022-08-25T04:38:48.230Z,15.84
2022-08-25T04:39:48.141Z,15.81
2022-08-25T04:40:48.106Z,15.80
2022-08-25T04:41:48.095Z,15.78
2022-08-25T04:42:48.267Z,15.75
2022-08-25T04:43:48.057Z,15.76
2022-08-25T04:44:48.046Z,15.73
2022-08-25T04:45:48.098Z,15.76
2022-08-25T04:46:48.021Z,15.67
2022-08-25T04:47:50.662Z,15.70
2022-08-25T04:48:47.990Z,15.67
2022-08-25T04:49:47.980Z,15.69
2022-08-25T04:50:47.963Z,15.69
2022-08-25T04:51:47.985Z,15.80
2022-08-25T04:52:47.936Z,15.67
2022-08-25T04:53:47.921Z,15.70
2022-08-25T04:54:47.910Z,15.73
2022-08-25T04:55:47.896Z,15.66
2022-08-25T04:56:47.880Z,15.72
2022-08-25T04:57:47.867Z,15.69
2022-08-25T04:58:47.866Z,15.72
2022-08-25T04:59:47.840Z,15.73
2022-08-25T05:00:47.850Z,15.72
2022-08-25T05:01:47.812Z,15.78
2022-08-25T05:02:47.800Z,15.81
2022-08-25T05:03:47.825Z,15.73
2022-08-25T05:04:47.804Z,15.73
2022-08-25T05:05:47.756Z,15.76
2022-08-25T05:06:47.755Z,15.80
2022-08-25T05:07:47.732Z,15.78
2022-08-25T05:08:47.715Z,15.73
2022-08-25T05:09:47.700Z,15.75
2022-08-25T05:10:47.690Z,15.83
2022-08-25T05:11:47.671Z,15.78
2022-08-25T05:12:47.660Z,15.80
2022-08-25T05:13:51.442Z,15.81
2022-08-25T05:14:47.635Z,15.78
2022-08-25T05:15:47.618Z,15.76
2022-08-25T05:16:47.626Z,15.78
2022-08-25T05:17:47.589Z,15.87
2022-08-25T05:18:47.585Z,15.90
2022-08-25T05:19:47.561Z,15.88
2022-08-25T05:20:47.548Z,15.88
2022-08-25T05:21:47.533Z,15.81
2022-08-25T05:22:47.521Z,15.88
2022-08-25T05:23:47.507Z,15.90
2022-08-25T05:24:47.496Z,15.96
2022-08-25T05:25:47.479Z,15.98
2022-08-25T05:26:47.471Z,16.02
2022-08-25T05:27:47.455Z,15.96
2022-08-25T05:28:47.744Z,16.03
2022-08-25T05:29:47.423Z,16.08
2022-08-25T05:30:49.834Z,16.12
2022-08-25T05:31:50.668Z,16.25
2022-08-25T05:32:47.385Z,16.22
2022-08-25T05:33:47.377Z,16.21
2022-08-25T05:34:48.911Z,16.25
2022-08-25T05:35:47.342Z,16.34
2022-08-25T05:36:47.331Z,16.39
2022-08-25T05:37:47.317Z,16.41
2022-08-25T05:38:47.305Z,16.50
2022-08-25T05:39:47.328Z,16.54
2022-08-25T05:40:47.277Z,16.54
2022-08-25T05:41:47.278Z,16.64
2022-08-25T05:42:47.250Z,16.66
2022-08-25T05:43:47.233Z,16.65
2022-08-25T05:44:47.220Z,16.83
2022-08-25T05:45:47.243Z,16.92
2022-08-25T05:46:47.197Z,17.01
2022-08-25T05:47:47.179Z,16.94
2022-08-25T05:48:47.173Z,17.07
2022-08-25T05:49:47.153Z,17.19
2022-08-25T05:53:34.607Z,17.53
2022-08-25T05:54:34.575Z,17.68
2022-08-25T05:56:40.064Z,18.00
2022-08-25T05:57:40.044Z,18.05
2022-08-25T05:59:45.551Z,18.52
2022-08-25T06:00:45.528Z,18.70
2022-08-25T06:02:50.989Z,19.00
2022-08-25T06:03:51.052Z,19.22
2022-08-25T06:05:56.407Z,19.49
2022-08-25T06:06:56.413Z,19.57
2022-08-25T06:09:02.032Z,19.92
2022-08-25T06:10:01.841Z,19.99
2022-08-25T06:12:07.319Z,20.27
2022-08-25T06:13:07.286Z,20.37
2022-08-25T06:14:07.272Z,20.49
2022-08-25T06:15:07.269Z,20.49
2022-08-25T06:16:07.327Z,20.70
2022-08-25T06:17:07.233Z,20.77
2022-08-25T06:18:07.292Z,20.80
2022-08-25T06:19:07.215Z,20.88
2022-08-25T06:20:07.201Z,21.05
2022-08-25T06:21:07.185Z,21.08
2022-08-25T06:22:07.179Z,21.15
2022-08-25T06:23:07.162Z,21.14
2022-08-25T06:24:07.160Z,21.29
2022-08-25T06:25:07.135Z,21.32
2022-08-25T06:26:07.131Z,21.40
2022-08-25T06:27:07.124Z,21.43
2022-08-25T06:28:07.247Z,21.53
2022-08-25T06:29:07.088Z,21.51
2022-08-25T06:30:07.806Z,21.65
2022-08-25T06:31:07.115Z,21.68
2022-08-25T06:32:07.098Z,21.77
2022-08-25T06:33:07.041Z,21.81
2022-08-25T06:34:07.031Z,21.91
2022-08-25T06:35:07.020Z,21.96
2022-08-25T06:36:07.012Z,22.06
2022-08-25T06:37:06.997Z,22.14
2022-08-25T06:38:07.192Z,22.15
2022-08-25T06:39:06.971Z,22.22
2022-08-25T06:40:07.052Z,22.26
2022-08-25T06:41:06.951Z,22.30
2022-08-25T06:42:06.942Z,22.34
2022-08-25T06:43:06.933Z,22.40
2022-08-25T06:44:06.934Z,22.52
2022-08-25T06:45:06.903Z,22.41
2022-08-25T06:46:06.916Z,22.62
2022-08-25T06:47:06.930Z,22.68
2022-08-25T06:48:06.992Z,22.63
2022-08-25T06:49:06.909Z,22.74
2022-08-25T06:50:06.849Z,22.71
2022-08-25T06:51:06.853Z,22.80
2022-08-25T06:52:06.841Z,22.86
2022-08-25T06:53:06.815Z,22.88
2022-08-25T06:54:06.805Z,22.91
2022-08-25T06:55:06.837Z,22.98
2022-08-25T06:56:06.935Z,22.98
2022-08-25T06:57:06.786Z,22.96
2022-08-25T06:58:06.912Z,23.11
2022-08-25T06:59:06.756Z,23.16
2022-08-25T07:00:06.745Z,23.11
2022-08-25T07:01:06.794Z,23.25
2022-08-25T07:02:06.788Z,23.32
2022-08-25T07:03:07.093Z,23.42
2022-08-25T07:04:11.744Z,23.52
2022-08-25T07:05:08.246Z,23.55
2022-08-25T07:06:06.680Z,23.55
2022-08-25T07:07:06.667Z,23.66
2022-08-25T07:08:06.886Z,23.70
2022-08-25T07:09:06.644Z,23.67
2022-08-25T07:10:06.636Z,23.69
2022-08-25T07:11:06.627Z,23.71
2022-08-25T07:12:06.620Z,23.84
2022-08-25T07:13:06.607Z,23.89
2022-08-25T07:14:06.599Z,23.89
2022-08-25T07:15:21.009Z,24.00
2022-08-25T07:16:06.612Z,24.06
2022-08-25T07:17:12.108Z,24.19
2022-08-25T07:18:06.779Z,24.18
2022-08-25T07:19:06.547Z,24.29
2022-08-25T07:20:06.586Z,24.34
2022-08-25T07:21:08.912Z,24.43
2022-08-25T07:22:06.520Z,24.53
2022-08-25T07:23:06.642Z,24.50
2022-08-25T07:24:06.497Z,24.66
2022-08-25T07:25:06.485Z,24.71
2022-08-25T07:26:15.689Z,24.74
2022-08-25T07:27:06.467Z,24.81
2022-08-25T07:28:06.461Z,24.86
2022-08-25T07:29:06.450Z,24.89
2022-08-25T07:30:06.443Z,24.99
2022-08-25T07:31:06.444Z,24.94
2022-08-25T07:32:06.423Z,25.00
2022-08-25T07:33:06.879Z,25.01
2022-08-25T07:34:06.404Z,24.99
2022-08-25T07:35:06.392Z,24.99
2022-08-25T07:36:06.385Z,25.00
2022-08-25T07:37:06.374Z,25.09
2022-08-25T07:38:06.366Z,25.25
2022-08-25T07:39:06.357Z,25.24
2022-08-25T07:40:06.409Z,25.25
2022-08-25T07:41:06.339Z,25.39
2022-08-25T07:42:12.166Z,25.36
2022-08-25T07:43:06.434Z,25.55
2022-08-25T07:44:06.315Z,25.61
2022-08-25T07:45:07.328Z,25.59
2022-08-25T07:46:06.335Z,25.59
2022-08-25T07:47:06.287Z,25.62
2022-08-25T07:48:06.282Z,25.67
2022-08-25T07:49:12.624Z,25.67
2022-08-25T07:50:06.264Z,25.70
2022-08-25T07:51:07.545Z,25.73
2022-08-25T07:52:06.923Z,25.71
2022-08-25T07:53:06.443Z,25.81
2022-08-25T07:54:06.232Z,25.89
2022-08-25T07:55:08.263Z,25.93
2022-08-25T07:56:06.218Z,25.99
2022-08-25T07:57:06.208Z,26.01
2022-08-25T07:58:06.382Z,25.99
2022-08-25T07:59:06.203Z,26.15
2022-08-25T08:00:06.183Z,26.29
2022-08-25T08:01:06.171Z,26.33
2022-08-25T08:02:06.207Z,26.48
2022-08-25T08:03:06.201Z,26.61
2022-08-25T08:04:06.201Z,26.70
2022-08-25T08:05:06.143Z,26.85
2022-08-25T08:06:06.139Z,26.97
2022-08-25T08:07:06.133Z,27.03
2022-08-25T08:08:06.214Z,27.18
2022-08-25T08:09:06.116Z,27.28
2022-08-25T08:10:33.242Z,27.35
2022-08-25T08:11:06.108Z,27.29
2022-08-25T08:12:06.097Z,27.45
2022-08-25T08:13:07.562Z,27.52
2022-08-25T08:14:06.087Z,27.60
2022-08-25T08:15:10.421Z,27.66
2022-08-25T08:16:06.102Z,27.75
2022-08-25T08:17:06.065Z,27.86
2022-08-25T08:18:07.210Z,28.06
2022-08-25T08:19:06.058Z,28.13
2022-08-25T08:20:06.049Z,28.15
2022-08-25T08:21:06.042Z,28.27
2022-08-25T08:22:06.037Z,28.27
2022-08-25T08:23:06.223Z,28.43
2022-08-25T08:24:14.836Z,28.43
2022-08-25T08:25:06.020Z,28.56
2022-08-25T08:26:06.016Z,28.71
2022-08-25T08:27:06.013Z,28.77
2022-08-25T08:28:07.236Z,28.96
2022-08-25T08:29:06.002Z,29.10
2022-08-25T08:30:06.002Z,29.21
2022-08-25T08:31:06.037Z,29.27
2022-08-25T08:32:05.987Z,29.49
2022-08-25T08:33:11.380Z,29.59
2022-08-25T08:34:05.980Z,29.64
2022-08-25T08:35:05.973Z,29.74
2022-08-25T08:36:05.972Z,29.84
2022-08-25T08:37:05.964Z,29.96
2022-08-25T08:38:13.536Z,30.03
2022-08-25T08:39:05.957Z,30.10
2022-08-25T08:40:06.059Z,30.16
2022-08-25T08:41:05.947Z,30.18
2022-08-25T08:42:12.701Z,30.26
2022-08-25T08:43:06.209Z,30.35
2022-08-25T08:45:05.933Z,30.48
2022-08-25T08:46:05.978Z,30.58
2022-08-25T08:47:08.995Z,30.70
2022-08-25T08:48:06.683Z,30.69
2022-08-25T08:49:05.916Z,30.78
2022-08-25T08:50:05.917Z,30.91
2022-08-25T08:51:06.791Z,30.92
2022-08-25T08:52:05.911Z,30.99
2022-08-25T08:53:05.957Z,31.25
2022-08-25T08:54:05.902Z,31.32
2022-08-25T08:55:06.567Z,31.44
2022-08-25T08:56:05.899Z,31.63
2022-08-25T08:57:05.892Z,31.77
2022-08-25T08:58:06.059Z,31.93
2022-08-25T08:59:06.183Z,32.07
2022-08-25T09:00:05.884Z,32.02
2022-08-25T09:01:05.882Z,32.16
2022-08-25T09:02:05.963Z,32.16
2022-08-25T09:03:06.300Z,32.12
2022-08-25T09:04:05.875Z,32.19
2022-08-25T09:05:05.869Z,32.20
2022-08-25T09:06:06.791Z,32.15
2022-08-25T09:07:05.869Z,32.12
2022-08-25T09:08:06.113Z,32.24
2022-08-25T09:09:06.934Z,32.23
2022-08-25T09:10:05.856Z,32.26
2022-08-25T09:11:05.853Z,32.48
2022-08-25T09:12:05.852Z,32.56
2022-08-25T09:13:11.296Z,32.61
2022-08-25T09:14:05.848Z,32.68
2022-08-25T09:15:12.541Z,32.83
2022-08-25T09:16:05.903Z,32.95
2022-08-25T09:17:05.836Z,32.88
2022-08-25T09:18:05.836Z,32.97
2022-08-25T09:19:05.833Z,33.17
2022-08-25T09:20:05.831Z,33.08
2022-08-25T09:21:05.828Z,33.12
2022-08-25T09:22:36.409Z,33.16
2022-08-25T09:23:05.822Z,33.16
2022-08-25T09:24:05.823Z,33.08
2022-08-25T09:25:08.623Z,33.05
2022-08-25T09:26:05.820Z,32.98
2022-08-25T09:27:05.813Z,33.04
2022-08-25T09:28:05.982Z,33.01
2022-08-25T09:29:06.088Z,33.19
2022-08-25T09:30:05.808Z,33.31
2022-08-25T09:31:05.860Z,33.50
2022-08-25T09:32:05.808Z,33.47
2022-08-25T09:33:05.797Z,33.58
2022-08-25T09:34:05.797Z,33.63
2022-08-25T09:35:05.795Z,33.63
2022-08-25T09:36:06.302Z,33.70
2022-08-25T09:37:05.790Z,33.72
2022-08-25T09:38:05.978Z,33.67
2022-08-25T09:39:05.781Z,33.72
2022-08-25T09:40:05.827Z,33.95
2022-08-25T09:41:05.782Z,34.02
2022-08-25T09:42:05.777Z,34.04
2022-08-25T09:43:05.771Z,34.09
2022-08-25T09:44:05.771Z,34.19
2022-08-25T09:45:05.768Z,34.09
2022-08-25T09:46:05.808Z,34.21
2022-08-25T09:47:05.763Z,34.09
2022-08-25T09:48:05.871Z,34.04
2022-08-25T09:49:05.760Z,34.19
2022-08-25T09:50:05.793Z,34.29
2022-08-25T09:51:05.760Z,34.48
2022-08-25T09:52:05.754Z,34.59
2022-08-25T09:53:15.194Z,34.85
2022-08-25T09:54:10.526Z,35.18
2022-08-25T09:55:05.747Z,35.31
2022-08-25T09:56:05.746Z,35.39
2022-08-25T09:57:08.547Z,35.60
2022-08-25T09:58:09.414Z,35.68
2022-08-25T09:59:05.741Z,35.81
2022-08-25T10:00:05.739Z,35.86
2022-08-25T10:01:05.774Z,35.82
2022-08-25T10:02:05.851Z,35.71
2022-08-25T10:03:06.460Z,35.86
2022-08-25T10:04:05.795Z,35.63
2022-08-25T10:05:05.757Z,35.72
2022-08-25T10:06:05.728Z,35.79
2022-08-25T10:07:05.729Z,35.86
2022-08-25T10:08:05.728Z,35.84
2022-08-25T10:09:05.823Z,35.82
2022-08-25T10:10:05.723Z,35.87
2022-08-25T10:11:06.486Z,35.88
2022-08-25T10:12:05.719Z,35.84
2022-08-25T10:13:06.356Z,35.76
2022-08-25T10:14:05.716Z,35.84
2022-08-25T10:15:05.717Z,35.86
2022-08-25T10:16:05.756Z,36.06
2022-08-25T10:17:05.710Z,36.24
2022-08-25T10:18:05.710Z,36.26
2022-08-25T10:19:05.712Z,36.51
2022-08-25T10:20:05.711Z,36.69
2022-08-25T10:21:07.497Z,36.70
2022-08-25T10:22:05.714Z,36.81
2022-08-25T10:23:05.867Z,37.06
2022-08-25T10:24:05.714Z,37.22
2022-08-25T10:25:05.703Z,37.58
2022-08-25T10:26:05.726Z,37.68
2022-08-25T10:27:05.706Z,37.85
2022-08-25T10:28:05.856Z,38.00
2022-08-25T10:29:05.703Z,37.92
2022-08-25T10:30:05.701Z,37.78
2022-08-25T10:31:05.729Z,37.76
2022-08-25T10:32:10.238Z,37.68
2022-08-25T10:33:06.036Z,37.73
2022-08-25T10:34:05.697Z,37.61
2022-08-25T10:35:05.699Z,37.63
2022-08-25T10:36:05.701Z,37.72
2022-08-25T10:37:05.699Z,37.83
2022-08-25T10:38:05.700Z,37.92
2022-08-25T10:39:05.698Z,37.98
2022-08-25T10:40:05.794Z,38.00
2022-08-25T10:41:05.696Z,38.12
2022-08-25T10:42:05.695Z,38.20
2022-08-25T10:43:05.800Z,38.31
2022-08-25T10:44:05.704Z,38.44
2022-08-25T10:45:05.697Z,38.73
2022-08-25T10:46:05.754Z,38.84
2022-08-25T10:47:05.713Z,39.17
2022-08-25T10:48:05.698Z,39.33
2022-08-25T10:49:05.696Z,39.52
2022-08-25T10:50:05.696Z,39.78
2022-08-25T10:51:05.701Z,39.88
2022-08-25T10:52:05.699Z,39.95
2022-08-25T10:53:05.805Z,40.01
2022-08-25T10:54:05.700Z,39.93
2022-08-25T10:55:05.701Z,39.93
2022-08-25T10:56:07.409Z,40.01
2022-08-25T10:57:08.124Z,39.91
2022-08-25T10:58:05.702Z,40.00
2022-08-25T10:59:05.711Z,39.70
2022-08-25T11:00:05.703Z,39.66
2022-08-25T11:01:05.752Z,39.66
2022-08-25T11:02:05.724Z,39.59
2022-08-25T11:03:05.802Z,39.73
2022-08-25T11:04:05.768Z,39.83
2022-08-25T11:05:05.789Z,39.75
2022-08-25T11:06:05.720Z,39.46
2022-08-25T11:07:05.713Z,39.10
2022-08-25T11:08:05.710Z,39.10
2022-08-25T11:09:05.728Z,39.10
2022-08-25T11:10:05.715Z,39.19
2022-08-25T11:11:05.714Z,39.29
2022-08-25T11:12:05.715Z,39.48
2022-08-25T11:13:05.864Z,39.61
2022-08-25T11:14:09.253Z,39.82
2022-08-25T11:15:05.743Z,39.95
2022-08-25T11:16:17.018Z,40.17
2022-08-25T11:17:05.788Z,40.35
2022-08-25T11:18:05.748Z,40.55
2022-08-25T11:19:05.739Z,40.49
2022-08-25T11:20:05.721Z,40.48
2022-08-25T11:21:05.737Z,40.29
2022-08-25T11:22:05.725Z,40.02
2022-08-25T11:23:05.778Z,39.78
2022-08-25T11:24:05.753Z,39.70
2022-08-25T11:25:05.727Z,39.67
2022-08-25T11:26:05.728Z,39.54
2022-08-25T11:27:05.731Z,39.51
2022-08-25T11:28:05.859Z,39.39
2022-08-25T11:29:05.737Z,39.29
2022-08-25T11:30:06.123Z,39.23
2022-08-25T11:31:05.792Z,39.34
2022-08-25T11:32:05.732Z,39.34
2022-08-25T11:33:05.732Z,39.33
2022-08-25T11:34:05.735Z,39.34
2022-08-25T11:35:05.759Z,39.08
2022-08-25T11:36:05.734Z,38.90
2022-08-25T11:37:05.745Z,38.85
2022-08-25T11:38:05.854Z,38.91
2022-08-25T11:39:05.745Z,39.07
2022-08-25T11:40:05.825Z,39.05
2022-08-25T11:41:11.407Z,39.19
2022-08-25T11:42:05.738Z,39.19
2022-08-25T11:43:08.095Z,39.22
2022-08-25T11:44:05.740Z,39.38
2022-08-25T11:45:05.747Z,39.38
2022-08-25T11:46:05.794Z,39.54
2022-08-25T11:47:05.745Z,39.51
2022-08-25T11:48:05.841Z,39.39
2022-08-25T11:49:05.746Z,39.14
2022-08-25T11:50:05.746Z,39.22
2022-08-25T11:51:05.747Z,39.39
2022-08-25T11:52:05.746Z,39.46
2022-08-25T11:53:05.750Z,39.45
2022-08-25T11:54:05.748Z,39.51
2022-08-25T11:55:05.752Z,39.59
2022-08-25T11:56:05.766Z,39.52
2022-08-25T11:57:05.755Z,39.56
2022-08-25T11:58:05.946Z,39.66
2022-08-25T11:59:05.753Z,40.04
2022-08-25T12:00:05.754Z,40.16
2022-08-25T12:01:05.755Z,40.39
2022-08-25T12:02:05.780Z,40.66
2022-08-25T12:03:05.755Z,41.05
2022-08-25T12:04:05.783Z,41.34
2022-08-25T12:05:05.937Z,41.71
2022-08-25T12:06:05.758Z,41.74
2022-08-25T12:07:05.762Z,41.78
2022-08-25T12:08:06.027Z,41.88
2022-08-25T12:09:05.761Z,41.90
2022-08-25T12:10:05.764Z,41.93
2022-08-25T12:11:10.650Z,41.74
2022-08-25T12:12:05.765Z,41.70
2022-08-25T12:13:10.329Z,41.67
2022-08-25T12:14:05.768Z,41.55
2022-08-25T12:15:05.770Z,41.36
2022-08-25T12:16:05.782Z,41.20
2022-08-25T12:17:05.776Z,41.04
2022-08-25T12:18:08.508Z,41.07
2022-08-25T12:19:05.777Z,41.05
2022-08-25T12:20:05.782Z,41.30
2022-08-25T12:21:05.780Z,41.55
2022-08-25T12:22:05.788Z,41.81
2022-08-25T12:23:05.786Z,42.14
2022-08-25T12:24:05.785Z,42.46
2022-08-25T12:25:05.787Z,42.41
2022-08-25T12:26:05.788Z,42.40
2022-08-25T12:27:06.276Z,42.47
2022-08-25T12:28:09.060Z,42.71
2022-08-25T12:29:07.523Z,42.97
2022-08-25T12:30:05.797Z,43.46
2022-08-25T12:31:05.868Z,43.61
2022-08-25T12:32:05.803Z,43.57
2022-08-25T12:33:05.804Z,43.46
2022-08-25T12:34:05.806Z,43.43
2022-08-25T12:35:05.809Z,43.50
2022-08-25T12:36:05.811Z,43.69
2022-08-25T12:37:06.205Z,43.92
2022-08-25T12:38:06.024Z,43.82
2022-08-25T12:39:05.818Z,43.70
2022-08-25T12:40:05.908Z,43.57
2022-08-25T12:41:05.824Z,43.46
2022-08-25T12:42:05.825Z,43.31
2022-08-25T12:43:06.008Z,43.19
2022-08-25T12:44:05.829Z,43.18
2022-08-25T12:45:05.847Z,43.08
2022-08-25T12:46:05.885Z,42.96
2022-08-25T12:47:05.839Z,42.75
2022-08-25T12:48:05.857Z,42.59
2022-08-25T12:49:05.845Z,42.53
2022-08-25T12:50:05.918Z,42.46
2022-08-25T12:51:05.848Z,42.39
2022-08-25T12:52:05.850Z,42.27
2022-08-25T12:53:06.011Z,42.34
2022-08-25T12:54:08.626Z,42.36
2022-08-25T12:55:05.859Z,42.46
2022-08-25T12:56:05.860Z,42.39
2022-08-25T12:57:05.860Z,42.51
2022-08-25T12:58:05.863Z,42.52
2022-08-25T12:59:05.868Z,42.55
2022-08-25T13:00:05.971Z,42.71
2022-08-25T13:01:07.550Z,42.75
2022-08-25T13:02:07.236Z,42.97
2022-08-25T13:03:06.343Z,42.99